sensor_id;sensor_type;location;lat;lon;timestamp;P1;durP1;ratioP1;P2;durP2;ratioP2
56239;SDS011;42154;51.992;5.896;2023-03-03T00:00:45;41.30;;;23.52;;
56239;SDS011;42154;51.992;5.896;2023-03-03T00:03:11;39.80;;;22.90;;
56239;SDS011;42154;51.992;5.896;2023-03-03T00:05:41;40.45;;;22.90;;
56239;SDS011;42154;51.992;5.896;2023-03-03T00:08:08;45.17;;;24.48;;
56239;SDS011;42154;51.992;5.896;2023-03-03T00:10:34;45.63;;;25.80;;
56239;SDS011;42154;51.992;5.896;2023-03-03T00:13:01;42.10;;;23.38;;
56239;SDS011;42154;51.992;5.896;2023-03-03T00:15:27;39.22;;;21.65;;
56239;SDS011;42154;51.992;5.896;2023-03-03T00:17:55;40.47;;;23.25;;
56239;SDS011;42154;51.992;5.896;2023-03-03T00:22:52;44.38;;;24.27;;
56239;SDS011;42154;51.992;5.896;2023-03-03T00:25:24;44.15;;;23.63;;
56239;SDS011;42154;51.992;5.896;2023-03-03T00:27:54;37.78;;;21.65;;
56239;SDS011;42154;51.992;5.896;2023-03-03T00:30:23;44.15;;;23.33;;
56239;SDS011;42154;51.992;5.896;2023-03-03T00:32:51;48.25;;;25.00;;
56239;SDS011;42154;51.992;5.896;2023-03-03T00:35:21;49.78;;;25.52;;
56239;SDS011;42154;51.992;5.896;2023-03-03T00:38:01;47.65;;;25.35;;
56239;SDS011;42154;51.992;5.896;2023-03-03T00:40:44;42.47;;;24.10;;
56239;SDS011;42154;51.992;5.896;2023-03-03T00:43:21;47.80;;;25.60;;
56239;SDS011;42154;51.992;5.896;2023-03-03T00:45:49;45.00;;;23.42;;
56239;SDS011;42154;51.992;5.896;2023-03-03T00:48:28;41.00;;;22.45;;
56239;SDS011;42154;51.992;5.896;2023-03-03T00:50:59;44.50;;;22.80;;
56239;SDS011;42154;51.992;5.896;2023-03-03T00:53:30;43.17;;;24.02;;
56239;SDS011;42154;51.992;5.896;2023-03-03T00:55:56;40.22;;;22.38;;
56239;SDS011;42154;51.992;5.896;2023-03-03T00:58:22;39.42;;;21.13;;
56239;SDS011;42154;51.992;5.896;2023-03-03T01:00:51;34.88;;;19.67;;
56239;SDS011;42154;51.992;5.896;2023-03-03T01:03:21;40.03;;;21.33;;
56239;SDS011;42154;51.992;5.896;2023-03-03T01:05:49;44.50;;;23.13;;
56239;SDS011;42154;51.992;5.896;2023-03-03T01:08:16;36.72;;;20.13;;
56239;SDS011;42154;51.992;5.896;2023-03-03T01:10:50;43.17;;;21.98;;
56239;SDS011;42154;51.992;5.896;2023-03-03T01:13:19;36.15;;;20.63;;
56239;SDS011;42154;51.992;5.896;2023-03-03T01:15:48;38.17;;;20.65;;
56239;SDS011;42154;51.992;5.896;2023-03-03T01:18:14;39.22;;;22.35;;
56239;SDS011;42154;51.992;5.896;2023-03-03T01:20:40;39.55;;;21.85;;
56239;SDS011;42154;51.992;5.896;2023-03-03T01:23:07;35.80;;;19.30;;
56239;SDS011;42154;51.992;5.896;2023-03-03T01:25:33;34.58;;;19.27;;
56239;SDS011;42154;51.992;5.896;2023-03-03T01:28:01;33.95;;;18.35;;
56239;SDS011;42154;51.992;5.896;2023-03-03T01:30:27;42.63;;;21.52;;
56239;SDS011;42154;51.992;5.896;2023-03-03T01:32:53;44.25;;;21.90;;
56239;SDS011;42154;51.992;5.896;2023-03-03T01:35:18;41.05;;;21.67;;
56239;SDS011;42154;51.992;5.896;2023-03-03T01:37:44;36.22;;;19.05;;
56239;SDS011;42154;51.992;5.896;2023-03-03T01:40:14;36.25;;;19.38;;
56239;SDS011;42154;51.992;5.896;2023-03-03T01:42:50;37.70;;;19.15;;
56239;SDS011;42154;51.992;5.896;2023-03-03T01:45:24;39.60;;;20.27;;
56239;SDS011;42154;51.992;5.896;2023-03-03T01:53:00;37.53;;;20.05;;
56239;SDS011;42154;51.992;5.896;2023-03-03T01:55:29;40.70;;;22.90;;
56239;SDS011;42154;51.992;5.896;2023-03-03T01:57:59;36.70;;;18.37;;
56239;SDS011;42154;51.992;5.896;2023-03-03T02:00:33;40.15;;;22.50;;
56239;SDS011;42154;51.992;5.896;2023-03-03T02:03:02;36.40;;;20.63;;
56239;SDS011;42154;51.992;5.896;2023-03-03T02:05:28;40.97;;;20.60;;
56239;SDS011;42154;51.992;5.896;2023-03-03T02:07:54;39.35;;;20.50;;
56239;SDS011;42154;51.992;5.896;2023-03-03T02:10:20;51.20;;;25.35;;
56239;SDS011;42154;51.992;5.896;2023-03-03T02:12:50;39.95;;;21.30;;
56239;SDS011;42154;51.992;5.896;2023-03-03T02:17:52;41.05;;;20.67;;
56239;SDS011;42154;51.992;5.896;2023-03-03T02:26:04;40.00;;;22.40;;
56239;SDS011;42154;51.992;5.896;2023-03-03T02:28:31;38.95;;;20.73;;
56239;SDS011;42154;51.992;5.896;2023-03-03T02:31:04;45.58;;;22.42;;
56239;SDS011;42154;51.992;5.896;2023-03-03T02:33:32;39.85;;;20.67;;
56239;SDS011;42154;51.992;5.896;2023-03-03T02:35:57;39.17;;;20.65;;
56239;SDS011;42154;51.992;5.896;2023-03-03T02:38:31;37.63;;;19.33;;
56239;SDS011;42154;51.992;5.896;2023-03-03T02:44:02;35.45;;;18.88;;
56239;SDS011;42154;51.992;5.896;2023-03-03T02:46:33;37.05;;;19.13;;
56239;SDS011;42154;51.992;5.896;2023-03-03T02:49:01;30.33;;;16.85;;
56239;SDS011;42154;51.992;5.896;2023-03-03T02:51:28;37.17;;;19.13;;
56239;SDS011;42154;51.992;5.896;2023-03-03T02:53:55;37.17;;;18.40;;
56239;SDS011;42154;51.992;5.896;2023-03-03T02:56:22;32.97;;;16.92;;
56239;SDS011;42154;51.992;5.896;2023-03-03T02:58:48;33.03;;;15.95;;
56239;SDS011;42154;51.992;5.896;2023-03-03T03:01:14;29.52;;;16.25;;
56239;SDS011;42154;51.992;5.896;2023-03-03T03:03:40;33.10;;;17.98;;
56239;SDS011;42154;51.992;5.896;2023-03-03T03:06:06;35.67;;;18.10;;
56239;SDS011;42154;51.992;5.896;2023-03-03T03:08:33;37.05;;;18.40;;
56239;SDS011;42154;51.992;5.896;2023-03-03T03:10:59;35.80;;;17.00;;
56239;SDS011;42154;51.992;5.896;2023-03-03T03:13:27;37.88;;;18.75;;
56239;SDS011;42154;51.992;5.896;2023-03-03T03:15:54;36.42;;;18.50;;
56239;SDS011;42154;51.992;5.896;2023-03-03T03:18:20;34.38;;;18.42;;
56239;SDS011;42154;51.992;5.896;2023-03-03T03:20:47;37.33;;;20.20;;
56239;SDS011;42154;51.992;5.896;2023-03-03T03:23:13;44.70;;;20.58;;
56239;SDS011;42154;51.992;5.896;2023-03-03T03:25:39;37.92;;;20.45;;
56239;SDS011;42154;51.992;5.896;2023-03-03T03:28:13;43.38;;;21.15;;
56239;SDS011;42154;51.992;5.896;2023-03-03T03:30:40;37.47;;;19.45;;
56239;SDS011;42154;51.992;5.896;2023-03-03T03:33:08;38.38;;;20.75;;
56239;SDS011;42154;51.992;5.896;2023-03-03T03:35:35;37.08;;;18.55;;
56239;SDS011;42154;51.992;5.896;2023-03-03T03:38:01;45.45;;;21.45;;
56239;SDS011;42154;51.992;5.896;2023-03-03T03:40:27;42.03;;;19.83;;
56239;SDS011;42154;51.992;5.896;2023-03-03T03:42:53;43.80;;;22.15;;
56239;SDS011;42154;51.992;5.896;2023-03-03T03:45:20;46.38;;;22.55;;
56239;SDS011;42154;51.992;5.896;2023-03-03T03:47:46;42.78;;;20.85;;
56239;SDS011;42154;51.992;5.896;2023-03-03T03:50:13;38.65;;;19.60;;
56239;SDS011;42154;51.992;5.896;2023-03-03T03:52:40;36.45;;;19.95;;
56239;SDS011;42154;51.992;5.896;2023-03-03T03:55:08;44.85;;;22.38;;
56239;SDS011;42154;51.992;5.896;2023-03-03T03:57:35;44.05;;;22.40;;
56239;SDS011;42154;51.992;5.896;2023-03-03T04:00:00;49.60;;;24.77;;
56239;SDS011;42154;51.992;5.896;2023-03-03T04:02:27;46.20;;;22.55;;
56239;SDS011;42154;51.992;5.896;2023-03-03T04:04:53;46.15;;;22.60;;
56239;SDS011;42154;51.992;5.896;2023-03-03T04:07:19;43.83;;;22.35;;
56239;SDS011;42154;51.992;5.896;2023-03-03T04:09:45;47.08;;;23.13;;
56239;SDS011;42154;51.992;5.896;2023-03-03T04:12:11;43.78;;;22.08;;
56239;SDS011;42154;51.992;5.896;2023-03-03T04:14:38;42.13;;;21.17;;
56239;SDS011;42154;51.992;5.896;2023-03-03T04:17:04;52.08;;;24.25;;
56239;SDS011;42154;51.992;5.896;2023-03-03T04:19:30;45.70;;;21.83;;
56239;SDS011;42154;51.992;5.896;2023-03-03T04:21:55;54.10;;;24.15;;
56239;SDS011;42154;51.992;5.896;2023-03-03T04:24:21;45.88;;;21.38;;
56239;SDS011;42154;51.992;5.896;2023-03-03T04:26:49;44.05;;;20.83;;
56239;SDS011;42154;51.992;5.896;2023-03-03T04:29:15;43.95;;;21.42;;
56239;SDS011;42154;51.992;5.896;2023-03-03T04:31:42;49.10;;;22.92;;
56239;SDS011;42154;51.992;5.896;2023-03-03T04:34:09;43.17;;;21.02;;
56239;SDS011;42154;51.992;5.896;2023-03-03T04:36:35;45.47;;;22.55;;
56239;SDS011;42154;51.992;5.896;2023-03-03T04:39:01;42.03;;;19.60;;
56239;SDS011;42154;51.992;5.896;2023-03-03T04:41:27;43.72;;;19.38;;
56239;SDS011;42154;51.992;5.896;2023-03-03T04:43:52;42.45;;;21.08;;
56239;SDS011;42154;51.992;5.896;2023-03-03T04:46:18;42.03;;;19.80;;
56239;SDS011;42154;51.992;5.896;2023-03-03T04:48:44;45.95;;;20.65;;
56239;SDS011;42154;51.992;5.896;2023-03-03T04:51:09;45.28;;;21.35;;
56239;SDS011;42154;51.992;5.896;2023-03-03T04:53:36;46.10;;;21.67;;
56239;SDS011;42154;51.992;5.896;2023-03-03T04:56:04;42.83;;;21.77;;
56239;SDS011;42154;51.992;5.896;2023-03-03T04:58:30;50.40;;;21.70;;
56239;SDS011;42154;51.992;5.896;2023-03-03T05:00:56;43.75;;;21.92;;
56239;SDS011;42154;51.992;5.896;2023-03-03T05:03:24;47.45;;;22.52;;
56239;SDS011;42154;51.992;5.896;2023-03-03T05:05:51;41.38;;;20.63;;
56239;SDS011;42154;51.992;5.896;2023-03-03T05:08:17;39.13;;;20.48;;
56239;SDS011;42154;51.992;5.896;2023-03-03T05:10:43;46.30;;;21.27;;
56239;SDS011;42154;51.992;5.896;2023-03-03T05:13:09;43.67;;;21.27;;
56239;SDS011;42154;51.992;5.896;2023-03-03T05:15:35;41.88;;;20.27;;
56239;SDS011;42154;51.992;5.896;2023-03-03T05:18:01;46.00;;;21.25;;
56239;SDS011;42154;51.992;5.896;2023-03-03T05:20:27;44.15;;;21.63;;
56239;SDS011;42154;51.992;5.896;2023-03-03T05:22:52;49.85;;;23.35;;
56239;SDS011;42154;51.992;5.896;2023-03-03T05:25:19;46.72;;;23.38;;
56239;SDS011;42154;51.992;5.896;2023-03-03T05:27:45;45.92;;;21.20;;
56239;SDS011;42154;51.992;5.896;2023-03-03T05:30:11;46.97;;;22.30;;
56239;SDS011;42154;51.992;5.896;2023-03-03T05:32:37;39.95;;;19.95;;
56239;SDS011;42154;51.992;5.896;2023-03-03T05:35:04;49.00;;;22.27;;
56239;SDS011;42154;51.992;5.896;2023-03-03T05:37:30;45.30;;;19.38;;
56239;SDS011;42154;51.992;5.896;2023-03-03T05:39:56;44.83;;;20.90;;
56239;SDS011;42154;51.992;5.896;2023-03-03T05:42:22;35.83;;;18.17;;
56239;SDS011;42154;51.992;5.896;2023-03-03T05:44:47;41.05;;;18.73;;
56239;SDS011;42154;51.992;5.896;2023-03-03T05:47:13;39.00;;;19.65;;
56239;SDS011;42154;51.992;5.896;2023-03-03T05:49:39;32.40;;;17.17;;
56239;SDS011;42154;51.992;5.896;2023-03-03T05:52:04;34.28;;;16.77;;
56239;SDS011;42154;51.992;5.896;2023-03-03T05:54:30;30.92;;;16.13;;
56239;SDS011;42154;51.992;5.896;2023-03-03T05:56:56;34.10;;;17.05;;
56239;SDS011;42154;51.992;5.896;2023-03-03T05:59:23;35.72;;;17.80;;
56239;SDS011;42154;51.992;5.896;2023-03-03T06:01:49;33.13;;;15.70;;
56239;SDS011;42154;51.992;5.896;2023-03-03T06:04:14;38.38;;;17.80;;
56239;SDS011;42154;51.992;5.896;2023-03-03T06:06:40;33.67;;;15.90;;
56239;SDS011;42154;51.992;5.896;2023-03-03T06:09:06;29.08;;;15.45;;
56239;SDS011;42154;51.992;5.896;2023-03-03T06:11:32;32.08;;;16.73;;
56239;SDS011;42154;51.992;5.896;2023-03-03T06:13:58;33.38;;;16.17;;
56239;SDS011;42154;51.992;5.896;2023-03-03T06:16:24;33.85;;;16.55;;
56239;SDS011;42154;51.992;5.896;2023-03-03T06:18:49;30.88;;;16.00;;
56239;SDS011;42154;51.992;5.896;2023-03-03T06:21:15;37.50;;;18.33;;
56239;SDS011;42154;51.992;5.896;2023-03-03T06:23:41;35.28;;;18.17;;
56239;SDS011;42154;51.992;5.896;2023-03-03T06:26:07;41.08;;;19.52;;
56239;SDS011;42154;51.992;5.896;2023-03-03T06:28:33;33.45;;;16.35;;
56239;SDS011;42154;51.992;5.896;2023-03-03T06:30:58;33.75;;;17.90;;
56239;SDS011;42154;51.992;5.896;2023-03-03T06:33:24;34.70;;;17.30;;
56239;SDS011;42154;51.992;5.896;2023-03-03T06:35:51;31.92;;;17.23;;
56239;SDS011;42154;51.992;5.896;2023-03-03T06:38:18;34.35;;;16.60;;
56239;SDS011;42154;51.992;5.896;2023-03-03T06:40:44;33.45;;;16.35;;
56239;SDS011;42154;51.992;5.896;2023-03-03T06:43:11;38.72;;;19.23;;
56239;SDS011;42154;51.992;5.896;2023-03-03T06:45:37;34.08;;;17.23;;
56239;SDS011;42154;51.992;5.896;2023-03-03T06:48:03;39.08;;;18.33;;
56239;SDS011;42154;51.992;5.896;2023-03-03T06:50:29;37.63;;;18.55;;
56239;SDS011;42154;51.992;5.896;2023-03-03T06:53:14;43.90;;;20.08;;
56239;SDS011;42154;51.992;5.896;2023-03-03T06:55:40;37.33;;;17.25;;
56239;SDS011;42154;51.992;5.896;2023-03-03T07:00:39;31.70;;;16.10;;
56239;SDS011;42154;51.992;5.896;2023-03-03T07:05:42;31.60;;;15.95;;
56239;SDS011;42154;51.992;5.896;2023-03-03T07:08:09;30.13;;;15.55;;
56239;SDS011;42154;51.992;5.896;2023-03-03T07:10:41;28.75;;;15.07;;
56239;SDS011;42154;51.992;5.896;2023-03-03T07:13:19;30.17;;;15.15;;
56239;SDS011;42154;51.992;5.896;2023-03-03T07:15:45;28.40;;;14.40;;
56239;SDS011;42154;51.992;5.896;2023-03-03T07:18:24;30.30;;;15.05;;
56239;SDS011;42154;51.992;5.896;2023-03-03T07:21:04;25.48;;;11.82;;
56239;SDS011;42154;51.992;5.896;2023-03-03T07:23:43;23.27;;;11.40;;
56239;SDS011;42154;51.992;5.896;2023-03-03T07:26:52;18.52;;;9.38;;
56239;SDS011;42154;51.992;5.896;2023-03-03T07:31:55;22.48;;;10.45;;
56239;SDS011;42154;51.992;5.896;2023-03-03T07:37:12;22.20;;;10.65;;
56239;SDS011;42154;51.992;5.896;2023-03-03T07:39:43;19.27;;;9.57;;
56239;SDS011;42154;51.992;5.896;2023-03-03T07:44:56;16.17;;;8.68;;
56239;SDS011;42154;51.992;5.896;2023-03-03T07:49:55;11.60;;;6.20;;
56239;SDS011;42154;51.992;5.896;2023-03-03T07:52:26;20.08;;;9.55;;
56239;SDS011;42154;51.992;5.896;2023-03-03T07:54:55;19.05;;;8.55;;
56239;SDS011;42154;51.992;5.896;2023-03-03T07:57:27;17.75;;;9.38;;
56239;SDS011;42154;51.992;5.896;2023-03-03T08:13:23;19.20;;;8.73;;
56239;SDS011;42154;51.992;5.896;2023-03-03T08:15:58;18.38;;;9.20;;
56239;SDS011;42154;51.992;5.896;2023-03-03T08:18:45;16.88;;;7.85;;
56239;SDS011;42154;51.992;5.896;2023-03-03T08:21:13;18.10;;;8.73;;
56239;SDS011;42154;51.992;5.896;2023-03-03T08:23:50;16.17;;;7.78;;
56239;SDS011;42154;51.992;5.896;2023-03-03T08:26:18;16.23;;;8.45;;
56239;SDS011;42154;51.992;5.896;2023-03-03T08:28:45;17.35;;;8.13;;
56239;SDS011;42154;51.992;5.896;2023-03-03T08:31:11;15.40;;;7.85;;
56239;SDS011;42154;51.992;5.896;2023-03-03T08:33:37;14.75;;;8.30;;
56239;SDS011;42154;51.992;5.896;2023-03-03T08:36:04;13.38;;;7.10;;
56239;SDS011;42154;51.992;5.896;2023-03-03T08:38:30;15.38;;;7.65;;
56239;SDS011;42154;51.992;5.896;2023-03-03T08:40:56;15.52;;;8.02;;
56239;SDS011;42154;51.992;5.896;2023-03-03T08:43:22;16.92;;;7.88;;
56239;SDS011;42154;51.992;5.896;2023-03-03T08:45:49;14.35;;;6.82;;
56239;SDS011;42154;51.992;5.896;2023-03-03T08:48:17;18.05;;;8.70;;
56239;SDS011;42154;51.992;5.896;2023-03-03T08:50:43;16.58;;;8.45;;
56239;SDS011;42154;51.992;5.896;2023-03-03T08:53:10;14.30;;;6.88;;
56239;SDS011;42154;51.992;5.896;2023-03-03T08:55:37;14.00;;;7.28;;
56239;SDS011;42154;51.992;5.896;2023-03-03T08:58:04;13.88;;;8.13;;
56239;SDS011;42154;51.992;5.896;2023-03-03T09:00:30;16.23;;;8.00;;
56239;SDS011;42154;51.992;5.896;2023-03-03T09:02:55;12.50;;;7.75;;
56239;SDS011;42154;51.992;5.896;2023-03-03T09:05:21;15.32;;;8.63;;
56239;SDS011;42154;51.992;5.896;2023-03-03T09:07:48;15.77;;;7.93;;
56239;SDS011;42154;51.992;5.896;2023-03-03T09:10:16;18.35;;;8.80;;
56239;SDS011;42154;51.992;5.896;2023-03-03T09:12:45;16.33;;;8.93;;
56239;SDS011;42154;51.992;5.896;2023-03-03T09:17:43;13.73;;;8.05;;
56239;SDS011;42154;51.992;5.896;2023-03-03T09:26:21;12.68;;;7.70;;
56239;SDS011;42154;51.992;5.896;2023-03-03T09:28:48;12.00;;;6.68;;
56239;SDS011;42154;51.992;5.896;2023-03-03T09:31:24;12.25;;;7.55;;
56239;SDS011;42154;51.992;5.896;2023-03-03T09:33:51;10.45;;;6.30;;
56239;SDS011;42154;51.992;5.896;2023-03-03T09:36:28;11.43;;;6.00;;
56239;SDS011;42154;51.992;5.896;2023-03-03T09:38:57;11.60;;;6.35;;
56239;SDS011;42154;51.992;5.896;2023-03-03T09:44:29;11.15;;;6.05;;
56239;SDS011;42154;51.992;5.896;2023-03-03T09:55:29;11.15;;;6.45;;
56239;SDS011;42154;51.992;5.896;2023-03-03T10:01:01;9.20;;;5.35;;
56239;SDS011;42154;51.992;5.896;2023-03-03T10:06:27;7.35;;;4.97;;
56239;SDS011;42154;51.992;5.896;2023-03-03T10:09:36;12.27;;;5.72;;
56239;SDS011;42154;51.992;5.896;2023-03-03T10:12:30;9.65;;;5.18;;
56239;SDS011;42154;51.992;5.896;2023-03-03T10:15:15;7.38;;;4.68;;
56239;SDS011;42154;51.992;5.896;2023-03-03T10:17:53;7.50;;;4.93;;
56239;SDS011;42154;51.992;5.896;2023-03-03T10:20:27;8.15;;;4.80;;
56239;SDS011;42154;51.992;5.896;2023-03-03T10:22:55;9.18;;;5.03;;
56239;SDS011;42154;51.992;5.896;2023-03-03T10:30:46;7.80;;;4.93;;
56239;SDS011;42154;51.992;5.896;2023-03-03T10:34:05;8.57;;;4.80;;
56239;SDS011;42154;51.992;5.896;2023-03-03T10:36:42;8.43;;;5.18;;
56239;SDS011;42154;51.992;5.896;2023-03-03T10:50:33;8.82;;;5.75;;
56239;SDS011;42154;51.992;5.896;2023-03-03T10:53:33;10.70;;;5.78;;
56239;SDS011;42154;51.992;5.896;2023-03-03T11:07:38;6.68;;;4.43;;
56239;SDS011;42154;51.992;5.896;2023-03-03T11:18:41;6.18;;;4.30;;
56239;SDS011;42154;51.992;5.896;2023-03-03T11:37:21;5.65;;;3.85;;
56239;SDS011;42154;51.992;5.896;2023-03-03T11:39:53;4.45;;;3.60;;
56239;SDS011;42154;51.992;5.896;2023-03-03T11:45:33;4.22;;;2.95;;
56239;SDS011;42154;51.992;5.896;2023-03-03T11:47:46;5.22;;;2.90;;
56239;SDS011;42154;51.992;5.896;2023-03-03T11:50:34;4.25;;;3.00;;
56239;SDS011;42154;51.992;5.896;2023-03-03T11:53:21;4.57;;;3.10;;
56239;SDS011;42154;51.992;5.896;2023-03-03T11:56:20;4.15;;;3.05;;
56239;SDS011;42154;51.992;5.896;2023-03-03T11:59:08;5.35;;;3.22;;
56239;SDS011;42154;51.992;5.896;2023-03-03T12:04:19;3.60;;;2.38;;
56239;SDS011;42154;51.992;5.896;2023-03-03T12:07:09;4.22;;;2.75;;
56239;SDS011;42154;51.992;5.896;2023-03-03T12:12:40;5.60;;;2.63;;
56239;SDS011;42154;51.992;5.896;2023-03-03T12:16:10;5.30;;;2.85;;
56239;SDS011;42154;51.992;5.896;2023-03-03T12:46:43;4.47;;;2.60;;
56239;SDS011;42154;51.992;5.896;2023-03-03T12:49:10;5.47;;;1.90;;
56239;SDS011;42154;51.992;5.896;2023-03-03T12:56:58;2.85;;;1.60;;
56239;SDS011;42154;51.992;5.896;2023-03-03T13:07:19;2.95;;;1.38;;
56239;SDS011;42154;51.992;5.896;2023-03-03T13:12:50;4.47;;;2.15;;
56239;SDS011;42154;51.992;5.896;2023-03-03T13:15:26;3.25;;;2.00;;
56239;SDS011;42154;51.992;5.896;2023-03-03T13:17:59;2.47;;;1.80;;
56239;SDS011;42154;51.992;5.896;2023-03-03T13:20:41;2.45;;;1.50;;
56239;SDS011;42154;51.992;5.896;2023-03-03T13:28:57;2.45;;;1.60;;
56239;SDS011;42154;51.992;5.896;2023-03-03T13:31:28;3.35;;;1.95;;
56239;SDS011;42154;51.992;5.896;2023-03-03T13:33:58;5.43;;;1.77;;
56239;SDS011;42154;51.992;5.896;2023-03-03T13:36:40;3.38;;;1.42;;
56239;SDS011;42154;51.992;5.896;2023-03-03T13:41:51;2.95;;;2.20;;
56239;SDS011;42154;51.992;5.896;2023-03-03T13:52:09;4.55;;;2.05;;
56239;SDS011;42154;51.992;5.896;2023-03-03T14:00:29;4.82;;;2.28;;
56239;SDS011;42154;51.992;5.896;2023-03-03T14:06:02;7.05;;;3.38;;
56239;SDS011;42154;51.992;5.896;2023-03-03T14:27:40;4.35;;;1.95;;
56239;SDS011;42154;51.992;5.896;2023-03-03T14:30:24;3.63;;;1.98;;
56239;SDS011;42154;51.992;5.896;2023-03-03T14:35:35;4.07;;;2.20;;
56239;SDS011;42154;51.992;5.896;2023-03-03T14:40:38;7.07;;;2.40;;
56239;SDS011;42154;51.992;5.896;2023-03-03T14:43:18;5.53;;;2.47;;
56239;SDS011;42154;51.992;5.896;2023-03-03T14:45:58;2.45;;;1.33;;
56239;SDS011;42154;51.992;5.896;2023-03-03T14:48:49;5.90;;;2.25;;
56239;SDS011;42154;51.992;5.896;2023-03-03T14:53:42;11.60;;;7.57;;
56239;SDS011;42154;51.992;5.896;2023-03-03T14:56:20;11.25;;;7.53;;
56239;SDS011;42154;51.992;5.896;2023-03-03T14:58:52;9.82;;;6.82;;
56239;SDS011;42154;51.992;5.896;2023-03-03T15:01:36;10.85;;;7.43;;
56239;SDS011;42154;51.992;5.896;2023-03-03T15:04:04;9.82;;;6.32;;
56239;SDS011;42154;51.992;5.896;2023-03-03T15:06:40;8.95;;;5.68;;
56239;SDS011;42154;51.992;5.896;2023-03-03T15:09:31;7.53;;;5.22;;
56239;SDS011;42154;51.992;5.896;2023-03-03T15:12:16;8.80;;;5.72;;
56239;SDS011;42154;51.992;5.896;2023-03-03T15:14:47;7.90;;;5.20;;
56239;SDS011;42154;51.992;5.896;2023-03-03T15:17:25;8.18;;;4.95;;
56239;SDS011;42154;51.992;5.896;2023-03-03T15:20:08;7.53;;;3.72;;
56239;SDS011;42154;51.992;5.896;2023-03-03T15:33:21;6.65;;;3.50;;
56239;SDS011;42154;51.992;5.896;2023-03-03T15:42:04;4.35;;;3.35;;
56239;SDS011;42154;51.992;5.896;2023-03-03T16:03:59;2.40;;;1.38;;
56239;SDS011;42154;51.992;5.896;2023-03-03T16:18:16;2.60;;;1.40;;
56239;SDS011;42154;51.992;5.896;2023-03-03T16:26:17;3.42;;;1.45;;
56239;SDS011;42154;51.992;5.896;2023-03-03T16:29:07;3.13;;;1.65;;
56239;SDS011;42154;51.992;5.896;2023-03-03T16:31:42;3.35;;;1.63;;
56239;SDS011;42154;51.992;5.896;2023-03-03T16:40:08;3.33;;;1.38;;
56239;SDS011;42154;51.992;5.896;2023-03-03T16:42:46;3.90;;;1.50;;
56239;SDS011;42154;51.992;5.896;2023-03-03T16:45:26;2.22;;;1.38;;
56239;SDS011;42154;51.992;5.896;2023-03-03T16:48:00;2.22;;;1.63;;
56239;SDS011;42154;51.992;5.896;2023-03-03T16:50:45;3.42;;;1.40;;
56239;SDS011;42154;51.992;5.896;2023-03-03T16:55:52;2.50;;;1.48;;
56239;SDS011;42154;51.992;5.896;2023-03-03T16:58:44;2.67;;;1.30;;
56239;SDS011;42154;51.992;5.896;2023-03-03T17:04:14;4.57;;;1.90;;
56239;SDS011;42154;51.992;5.896;2023-03-03T17:12:45;4.18;;;1.77;;
56239;SDS011;42154;51.992;5.896;2023-03-03T17:20:57;3.95;;;1.73;;
56239;SDS011;42154;51.992;5.896;2023-03-03T17:23:43;4.10;;;1.25;;
56239;SDS011;42154;51.992;5.896;2023-03-03T17:26:36;3.45;;;1.60;;
56239;SDS011;42154;51.992;5.896;2023-03-03T17:34:40;4.90;;;1.50;;
56239;SDS011;42154;51.992;5.896;2023-03-03T17:37:33;2.92;;;1.00;;
56239;SDS011;42154;51.992;5.896;2023-03-03T17:42:54;3.80;;;1.35;;
56239;SDS011;42154;51.992;5.896;2023-03-03T17:45:37;6.65;;;3.72;;
56239;SDS011;42154;51.992;5.896;2023-03-03T17:48:12;7.07;;;2.38;;
56239;SDS011;42154;51.992;5.896;2023-03-03T18:13:18;4.10;;;1.45;;
56239;SDS011;42154;51.992;5.896;2023-03-03T18:21:36;6.43;;;2.22;;
56239;SDS011;42154;51.992;5.896;2023-03-03T18:24:32;4.53;;;1.25;;
56239;SDS011;42154;51.992;5.896;2023-03-03T18:27:12;4.97;;;1.30;;
56239;SDS011;42154;51.992;5.896;2023-03-03T18:37:54;4.55;;;1.48;;
56239;SDS011;42154;51.992;5.896;2023-03-03T18:40:26;6.95;;;1.77;;
56239;SDS011;42154;51.992;5.896;2023-03-03T18:42:55;6.32;;;1.70;;
56239;SDS011;42154;51.992;5.896;2023-03-03T18:50:41;9.93;;;2.45;;
56239;SDS011;42154;51.992;5.896;2023-03-03T18:55:49;8.10;;;2.08;;
56239;SDS011;42154;51.992;5.896;2023-03-03T19:00:49;12.63;;;2.92;;
56239;SDS011;42154;51.992;5.896;2023-03-03T19:06:00;20.67;;;7.07;;
56239;SDS011;42154;51.992;5.896;2023-03-03T19:16:50;11.57;;;3.33;;
56239;SDS011;42154;51.992;5.896;2023-03-03T19:19:17;10.05;;;2.20;;
56239;SDS011;42154;51.992;5.896;2023-03-03T19:21:50;9.32;;;2.13;;
56239;SDS011;42154;51.992;5.896;2023-03-03T19:24:36;12.77;;;2.90;;
56239;SDS011;42154;51.992;5.896;2023-03-03T19:35:41;12.60;;;2.75;;
56239;SDS011;42154;51.992;5.896;2023-03-03T19:41:19;15.10;;;2.90;;
56239;SDS011;42154;51.992;5.896;2023-03-03T19:52:02;11.60;;;3.75;;
56239;SDS011;42154;51.992;5.896;2023-03-03T19:55:12;12.73;;;3.83;;
56239;SDS011;42154;51.992;5.896;2023-03-03T20:00:53;16.15;;;3.08;;
56239;SDS011;42154;51.992;5.896;2023-03-03T20:03:43;11.65;;;3.28;;
56239;SDS011;42154;51.992;5.896;2023-03-03T20:06:19;10.68;;;2.70;;
56239;SDS011;42154;51.992;5.896;2023-03-03T20:14:48;12.05;;;3.63;;
56239;SDS011;42154;51.992;5.896;2023-03-03T20:17:31;14.88;;;3.95;;
56239;SDS011;42154;51.992;5.896;2023-03-03T20:23:22;14.00;;;3.38;;
56239;SDS011;42154;51.992;5.896;2023-03-03T20:26:07;11.73;;;2.55;;
56239;SDS011;42154;51.992;5.896;2023-03-03T20:31:48;16.02;;;3.95;;
56239;SDS011;42154;51.992;5.896;2023-03-03T20:37:15;9.90;;;3.30;;
56239;SDS011;42154;51.992;5.896;2023-03-03T20:42:44;17.67;;;5.20;;
56239;SDS011;42154;51.992;5.896;2023-03-03T21:02:12;13.55;;;3.10;;
56239;SDS011;42154;51.992;5.896;2023-03-03T21:05:14;12.48;;;3.75;;
56239;SDS011;42154;51.992;5.896;2023-03-03T21:08:02;15.35;;;3.50;;
56239;SDS011;42154;51.992;5.896;2023-03-03T21:10:30;14.52;;;3.53;;
56239;SDS011;42154;51.992;5.896;2023-03-03T21:15:43;11.98;;;2.33;;
56239;SDS011;42154;51.992;5.896;2023-03-03T21:18:25;13.57;;;3.15;;
56239;SDS011;42154;51.992;5.896;2023-03-03T21:20:52;10.90;;;2.55;;
56239;SDS011;42154;51.992;5.896;2023-03-03T21:23:17;14.40;;;2.55;;
56239;SDS011;42154;51.992;5.896;2023-03-03T21:33:41;16.80;;;3.35;;
56239;SDS011;42154;51.992;5.896;2023-03-03T21:38:58;11.10;;;2.75;;
56239;SDS011;42154;51.992;5.896;2023-03-03T21:41:26;14.88;;;2.78;;
56239;SDS011;42154;51.992;5.896;2023-03-03T21:43:52;14.35;;;2.90;;
56239;SDS011;42154;51.992;5.896;2023-03-03T21:46:19;14.68;;;3.17;;
56239;SDS011;42154;51.992;5.896;2023-03-03T21:48:49;19.52;;;4.32;;
56239;SDS011;42154;51.992;5.896;2023-03-03T21:51:16;15.05;;;4.50;;
56239;SDS011;42154;51.992;5.896;2023-03-03T21:53:42;16.73;;;4.35;;
56239;SDS011;42154;51.992;5.896;2023-03-03T21:56:09;17.98;;;5.13;;
56239;SDS011;42154;51.992;5.896;2023-03-03T21:58:37;14.07;;;3.22;;
56239;SDS011;42154;51.992;5.896;2023-03-03T22:01:07;13.20;;;3.08;;
56239;SDS011;42154;51.992;5.896;2023-03-03T22:03:33;14.95;;;3.13;;
56239;SDS011;42154;51.992;5.896;2023-03-03T22:06:00;17.70;;;3.70;;
56239;SDS011;42154;51.992;5.896;2023-03-03T22:08:27;19.30;;;3.67;;
56239;SDS011;42154;51.992;5.896;2023-03-03T22:10:53;13.30;;;3.40;;
56239;SDS011;42154;51.992;5.896;2023-03-03T22:13:21;13.95;;;2.90;;
56239;SDS011;42154;51.992;5.896;2023-03-03T22:15:47;23.73;;;3.20;;
56239;SDS011;42154;51.992;5.896;2023-03-03T22:18:14;14.48;;;3.10;;
56239;SDS011;42154;51.992;5.896;2023-03-03T22:20:42;13.45;;;3.00;;